Time,TemperatureF,DewpointF,PressureIn,WindDirection,WindDirectionDegrees,WindSpeedMPH,WindSpeedGustMPH,Humidity,HourlyPrecipIn,Conditions,Clouds,dailyrainin,SolarRadiationWatts/m^2,SoftwareType,DateUTC
2013-04-26 00:11:00,54.0,6.0,-100.00,WSW,246,6.0,9.0,14,0.00,,,0.00,0.000000,,2013-04-26 07:11:00,
2013-04-26 00:22:00,54.0,6.0,-100.00,WSW,246,6.0,9.0,14,0.00,,,0.00,0.000000,,2013-04-26 07:22:00,
2013-04-26 00:31:00,54.0,6.0,-100.00,WSW,246,6.0,9.0,14,0.00,,,0.00,0.000000,,2013-04-26 07:31:00,
2013-04-26 00:42:00,54.0,6.0,-100.00,WSW,246,6.0,9.0,14,0.00,,,0.00,0.000000,,2013-04-26 07:42:00,
2013-04-26 01:11:00,53.0,18.0,-100.00,WSW,246,6.0,9.0,25,0.00,,,0.00,0.000000,,2013-04-26 08:11:00,
2013-04-26 01:21:00,53.0,18.0,-100.00,WSW,246,6.0,9.0,25,0.00,,,0.00,0.000000,,2013-04-26 08:21:00,
2013-04-26 01:31:00,53.0,18.0,-100.00,WSW,246,6.0,9.0,25,0.00,,,0.00,0.000000,,2013-04-26 08:31:00,
2013-04-26 01:42:00,53.0,18.0,-100.00,WSW,246,6.0,9.0,25,0.00,,,0.00,0.000000,,2013-04-26 08:42:00,
2013-04-26 02:11:00,53.0,22.0,-100.00,SSE,166,4.0,9.0,30,0.00,,,0.00,0.000000,,2013-04-26 09:11:00,
2013-04-26 02:21:00,53.0,22.0,-100.00,SSE,166,4.0,9.0,30,0.00,,,0.00,0.000000,,2013-04-26 09:21:00,
2013-04-26 02:33:00,53.0,22.0,-100.00,SSE,166,4.0,9.0,30,0.00,,,0.00,0.000000,,2013-04-26 09:33:00,
2013-04-26 02:42:00,53.0,22.0,-100.00,SSE,166,4.0,9.0,30,0.00,,,0.00,0.000000,,2013-04-26 09:42:00,
2013-04-26 03:12:00,50.0,21.0,-100.00,WSW,242,5.0,7.0,32,0.00,,,0.00,0.000000,,2013-04-26 10:12:00,
2013-04-26 03:22:00,50.0,21.0,-100.00,WSW,242,5.0,7.0,32,0.00,,,0.00,0.000000,,2013-04-26 10:22:00,
2013-04-26 03:33:00,50.0,21.0,-100.00,WSW,242,5.0,7.0,32,0.00,,,0.00,0.000000,,2013-04-26 10:33:00,
2013-04-26 03:42:00,50.0,21.0,-100.00,WSW,242,5.0,7.0,32,0.00,,,0.00,0.000000,,2013-04-26 10:42:00,
2013-04-26 04:11:00,50.0,20.0,-100.00,WSW,245,7.0,8.0,30,0.00,,,0.00,0.000000,,2013-04-26 11:11:00,
2013-04-26 04:22:00,50.0,20.0,-100.00,WSW,245,7.0,8.0,30,0.00,,,0.00,0.000000,,2013-04-26 11:22:00,
2013-04-26 04:32:00,50.0,20.0,-100.00,WSW,245,7.0,8.0,30,0.00,,,0.00,0.000000,,2013-04-26 11:32:00,
2013-04-26 04:41:00,50.0,20.0,-100.00,WSW,245,7.0,8.0,30,0.00,,,0.00,0.000000,,2013-04-26 11:41:00,
2013-04-26 05:11:00,50.0,27.0,-100.00,WSW,237,8.0,10.0,41,0.00,,,0.00,0.000000,,2013-04-26 12:11:00,
2013-04-26 05:21:00,50.0,27.0,-100.00,WSW,237,8.0,10.0,41,0.00,,,0.00,0.000000,,2013-04-26 12:21:00,
2013-04-26 06:11:00,48.0,28.0,-100.00,WSW,249,6.0,9.0,46,0.00,,,0.00,0.000000,,2013-04-26 13:11:00,
2013-04-26 07:11:00,50.0,30.0,-100.00,WSW,240,0.0,6.0,46,0.00,,,0.00,32.000000,,2013-04-26 14:11:00,
2013-04-26 07:21:00,50.0,30.0,-100.00,WSW,240,0.0,6.0,46,0.00,,,0.00,32.000000,,2013-04-26 14:21:00,
2013-04-26 08:12:00,59.0,36.0,-100.00,West,265,3.0,7.0,42,-99.99,,,0.00,238.000000,,2013-04-26 15:12:00,
2013-04-26 08:21:00,59.0,36.0,-100.00,West,265,3.0,7.0,42,-99.99,,,0.00,238.000000,,2013-04-26 15:21:00,
2013-04-26 09:12:00,62.0,36.0,-100.00,WNW,302,8.0,12.0,38,0.00,,,0.00,482.000000,,2013-04-26 16:12:00,
2013-04-26 10:12:00,68.0,39.0,-100.00,NW,312,2.0,10.0,34,0.00,,,0.00,738.000000,,2013-04-26 17:12:00,
2013-04-26 10:21:00,68.0,39.0,-100.00,NW,312,2.0,10.0,34,0.00,,,0.00,738.000000,,2013-04-26 17:21:00,
2013-04-26 11:11:00,72.0,45.0,-100.00,NNW,331,2.0,12.0,38,0.00,,,0.00,953.000000,,2013-04-26 18:11:00,
2013-04-26 11:22:00,72.0,45.0,-100.00,NNW,331,2.0,12.0,38,0.00,,,0.00,953.000000,,2013-04-26 18:22:00,
2013-04-26 12:11:00,75.0,47.0,-100.00,NW,325,2.0,10.0,37,0.00,,,0.00,1105.000000,,2013-04-26 19:11:00,
2013-04-26 12:22:00,75.0,47.0,-100.00,NW,325,2.0,10.0,37,0.00,,,0.00,1105.000000,,2013-04-26 19:22:00,
2013-04-26 13:11:00,75.0,45.0,-100.00,NE,40,3.0,11.0,35,0.00,,,0.00,1190.000000,,2013-04-26 20:11:00,
2013-04-26 14:11:00,78.0,47.0,-100.00,NE,52,7.0,16.0,33,0.00,,,0.00,1203.000000,,2013-04-26 21:11:00,
2013-04-26 14:21:00,78.0,47.0,-100.00,NE,52,7.0,16.0,33,0.00,,,0.00,1203.000000,,2013-04-26 21:21:00,
2013-04-26 15:12:00,77.0,46.0,-100.00,ENE,72,6.0,19.0,33,0.00,,,0.00,1143.000000,,2013-04-26 22:12:00,
2013-04-26 15:22:00,77.0,46.0,-100.00,ENE,72,6.0,19.0,33,0.00,,,0.00,1143.000000,,2013-04-26 22:22:00,
2013-04-26 16:11:00,79.0,30.0,-100.00,NNW,340,6.0,18.0,17,0.00,,,0.00,1011.000000,,2013-04-26 23:11:00,
2013-04-26 16:21:00,79.0,30.0,-100.00,NNW,340,6.0,18.0,17,0.00,,,0.00,1011.000000,,2013-04-26 23:21:00,
2013-04-26 16:32:00,79.0,30.0,-100.00,NNW,340,6.0,18.0,17,0.00,,,0.00,1011.000000,,2013-04-26 23:32:00,
2013-04-26 16:42:00,79.0,30.0,-100.00,NNW,340,6.0,18.0,17,0.00,,,0.00,1011.000000,,2013-04-26 23:42:00,
2013-04-26 17:11:00,79.0,22.0,-100.00,NNE,21,6.0,24.0,12,0.00,,,0.00,814.000000,,2013-04-27 00:11:00,
2013-04-26 17:21:00,79.0,22.0,-100.00,NNE,21,6.0,24.0,12,0.00,,,0.00,814.000000,,2013-04-27 00:21:00,
2013-04-26 17:32:00,79.0,22.0,-100.00,NNE,21,6.0,24.0,12,0.00,,,0.00,814.000000,,2013-04-27 00:32:00,
2013-04-26 17:41:00,79.0,22.0,-100.00,NNE,21,6.0,24.0,12,0.00,,,0.00,814.000000,,2013-04-27 00:41:00,
2013-04-26 18:11:00,80.0,23.0,-100.00,NW,313,2.0,14.0,12,0.00,,,0.00,570.000000,,2013-04-27 01:11:00,
2013-04-26 18:21:00,80.0,23.0,-100.00,NW,313,2.0,14.0,12,0.00,,,0.00,570.000000,,2013-04-27 01:21:00,
2013-04-26 18:32:00,80.0,23.0,-100.00,NW,313,2.0,14.0,12,0.00,,,0.00,570.000000,,2013-04-27 01:32:00,
2013-04-26 18:41:00,80.0,23.0,-100.00,NW,313,2.0,14.0,12,0.00,,,0.00,570.000000,,2013-04-27 01:41:00,
2013-04-26 19:11:00,77.0,24.0,-100.00,East,83,5.0,11.0,14,0.00,,,0.00,303.000000,,2013-04-27 02:11:00,
2013-04-26 19:22:00,77.0,24.0,-100.00,East,83,5.0,11.0,14,0.00,,,0.00,303.000000,,2013-04-27 02:22:00,
2013-04-26 19:32:00,77.0,24.0,-100.00,East,83,5.0,11.0,14,0.00,,,0.00,303.000000,,2013-04-27 02:32:00,
2013-04-26 19:42:00,77.0,24.0,-100.00,East,83,5.0,11.0,14,0.00,,,0.00,303.000000,,2013-04-27 02:42:00,
2013-04-26 20:11:00,68.0,22.0,-100.00,East,101,3.0,10.0,17,0.00,,,0.00,71.000000,,2013-04-27 03:11:00,
2013-04-26 20:22:00,68.0,22.0,-100.00,East,101,3.0,10.0,17,0.00,,,0.00,71.000000,,2013-04-27 03:22:00,
2013-04-26 20:32:00,68.0,22.0,-100.00,East,101,3.0,10.0,17,0.00,,,0.00,71.000000,,2013-04-27 03:32:00,
2013-04-26 20:42:00,68.0,22.0,-100.00,East,101,3.0,10.0,17,0.00,,,0.00,71.000000,,2013-04-27 03:42:00,
2013-04-26 21:12:00,65.0,20.0,-100.00,ENE,75,0.0,7.0,18,0.00,,,0.00,0.000000,,2013-04-27 04:12:00,
2013-04-26 21:22:00,65.0,20.0,-100.00,ENE,75,0.0,7.0,18,0.00,,,0.00,0.000000,,2013-04-27 04:22:00,
2013-04-26 21:33:00,65.0,20.0,-100.00,ENE,75,0.0,7.0,18,0.00,,,0.00,0.000000,,2013-04-27 04:33:00,
2013-04-26 21:42:00,65.0,20.0,-100.00,ENE,75,0.0,7.0,18,0.00,,,0.00,0.000000,,2013-04-27 04:42:00,
2013-04-26 22:12:00,55.0,18.0,-100.00,WNW,284,0.0,0.0,23,0.00,,,0.00,0.000000,,2013-04-27 05:12:00,
2013-04-26 22:22:00,55.0,18.0,-100.00,WNW,284,0.0,0.0,23,0.00,,,0.00,0.000000,,2013-04-27 05:22:00,
2013-04-26 23:12:00,52.0,17.0,-100.00,SSW,208,0.0,0.0,25,0.00,,,0.00,0.000000,,2013-04-27 06:12:00,
2013-04-26 23:41:00,52.0,17.0,-100.00,SSW,208,0.0,0.0,25,0.00,,,0.00,0.000000,,2013-04-27 06:41:00,